createdAt,value
2018-12-04T02:11:19.862Z,87.02
2018-12-04T02:13:48.012Z,88.29
2018-12-04T02:16:16.165Z,88.50
2018-12-04T02:18:44.403Z,88.37
2018-12-04T02:21:12.745Z,89.25
2018-12-04T02:23:40.934Z,89.38
2018-12-04T02:26:09.221Z,89.65
2018-12-04T02:28:41.573Z,88.70
2018-12-04T02:31:10.719Z,89.57
2018-12-04T02:33:38.980Z,89.21
2018-12-04T02:36:07.225Z,88.53
2018-12-04T02:38:35.919Z,88.51
2018-12-04T02:41:04.204Z,88.33
2018-12-04T02:43:32.450Z,87.95
2018-12-04T02:46:00.727Z,88.46
2018-12-04T02:48:29.045Z,88.85
2018-12-04T02:50:57.286Z,88.11
2018-12-04T02:53:25.469Z,87.73
2018-12-04T02:55:54.374Z,87.95
2018-12-04T02:58:22.538Z,88.44
2018-12-04T03:00:50.798Z,88.13
2018-12-04T03:03:18.977Z,87.99
2018-12-04T03:05:47.169Z,87.82
2018-12-04T03:08:15.371Z,88.30
2018-12-04T03:10:43.587Z,88.27
2018-12-04T03:13:12.273Z,87.55
2018-12-04T03:15:40.467Z,88.42
2018-12-04T03:18:08.890Z,88.29
2018-12-04T03:20:37.029Z,87.43
2018-12-04T03:23:05.653Z,87.68
2018-12-04T03:25:33.813Z,87.97
2018-12-04T03:28:02.051Z,88.37
2018-12-04T03:30:30.437Z,88.38
2018-12-04T03:32:58.847Z,88.68
2018-12-04T03:35:27.109Z,88.43
2018-12-04T03:37:55.373Z,88.44
2018-12-04T03:40:23.631Z,87.98
2018-12-04T03:42:52.209Z,88.84
2018-12-04T03:45:20.537Z,88.26
2018-12-04T03:47:48.877Z,88.12
2018-12-04T03:50:17.058Z,88.44
2018-12-04T03:52:45.371Z,88.76
2018-12-04T03:55:13.602Z,88.08
2018-12-04T03:57:42.101Z,88.36
2018-12-04T04:00:10.676Z,88.25
2018-12-04T04:02:38.922Z,88.25
2018-12-04T04:05:07.222Z,88.26
2018-12-04T04:07:35.707Z,87.86
2018-12-04T04:10:05.079Z,87.80
2018-12-04T04:12:33.382Z,87.66
2018-12-04T04:15:01.633Z,88.01
2018-12-04T04:17:30.061Z,87.76
2018-12-04T04:19:58.414Z,87.89
2018-12-04T04:22:26.688Z,87.10
2018-12-04T04:24:54.854Z,87.45
2018-12-04T04:27:23.009Z,87.15
2018-12-04T04:29:52.067Z,87.43
2018-12-04T04:32:20.347Z,87.05
2018-12-04T04:34:48.582Z,86.80
2018-12-04T04:37:16.765Z,86.87
2018-12-04T04:39:45.013Z,87.11
2018-12-04T04:42:14.262Z,87.78
2018-12-04T04:44:42.516Z,87.04
2018-12-04T04:47:10.761Z,87.90
2018-12-04T04:49:39.078Z,87.94
2018-12-04T04:52:07.410Z,87.46
2018-12-04T04:54:36.354Z,87.81
2018-12-04T04:57:04.659Z,87.61
2018-12-04T04:59:32.927Z,87.58
2018-12-04T05:02:01.317Z,87.18
2018-12-04T05:04:29.725Z,87.50
2018-12-04T05:06:57.896Z,87.14
2018-12-04T05:09:26.201Z,87.31
2018-12-04T05:11:54.346Z,88.02
2018-12-04T05:14:23.122Z,88.13
2018-12-04T05:16:51.437Z,87.75
2018-12-04T05:19:20.193Z,87.94
2018-12-04T05:21:48.494Z,88.16
2018-12-04T05:24:17.489Z,87.51
2018-12-04T05:26:45.732Z,87.57
2018-12-04T05:29:13.956Z,87.21
2018-12-04T05:31:42.200Z,87.01
2018-12-04T05:34:10.463Z,87.23
2018-12-04T05:36:38.701Z,87.28
2018-12-04T05:39:07.969Z,85.93
2018-12-04T05:41:36.890Z,86.48
2018-12-04T05:44:05.210Z,85.99
2018-12-04T05:46:33.379Z,85.92
2018-12-04T05:49:01.694Z,85.49
2018-12-04T05:51:30.481Z,85.69
2018-12-04T05:53:59.586Z,85.35
2018-12-04T05:56:28.337Z,84.88
2018-12-04T05:58:56.605Z,85.01
2018-12-04T06:01:25.063Z,85.12
2018-12-04T06:03:53.253Z,84.49
2018-12-04T06:06:21.545Z,84.78
2018-12-04T06:08:49.725Z,85.14
2018-12-04T06:11:17.988Z,85.01
2018-12-04T06:13:46.358Z,84.82
2018-12-04T06:16:14.904Z,84.25
2018-12-04T06:18:43.141Z,84.37
2018-12-04T06:21:11.508Z,84.34
2018-12-04T06:23:40.412Z,84.66
2018-12-04T06:26:08.585Z,84.88
2018-12-04T06:28:36.841Z,84.02
2018-12-04T06:31:04.985Z,83.55
2018-12-04T06:33:33.297Z,84.34
2018-12-04T06:36:01.573Z,84.93
2018-12-04T06:38:29.868Z,84.93
2018-12-04T06:40:58.101Z,84.72
2018-12-04T06:43:26.285Z,84.47
2018-12-04T06:45:54.464Z,84.91
2018-12-04T06:48:22.709Z,85.44
2018-12-04T06:50:50.914Z,85.04
2018-12-04T06:53:19.089Z,85.49
2018-12-04T06:55:47.775Z,85.21
2018-12-04T06:58:16.632Z,85.57
2018-12-04T07:00:44.933Z,85.73
2018-12-04T07:03:13.209Z,85.58
2018-12-04T07:05:41.496Z,84.20
2018-12-04T07:08:09.645Z,85.22
2018-12-04T07:10:37.931Z,85.44
2018-12-04T07:13:06.105Z,84.50
2018-12-04T07:15:34.382Z,84.92
2018-12-04T07:18:02.568Z,84.27
2018-12-04T07:20:30.982Z,84.91
2018-12-04T07:22:59.163Z,85.37
2018-12-04T07:25:27.348Z,85.43
2018-12-04T07:27:55.558Z,85.15
2018-12-04T07:30:23.996Z,85.21
2018-12-04T07:32:52.151Z,85.24
2018-12-04T07:35:20.385Z,86.25
2018-12-04T07:37:48.709Z,85.91
2018-12-04T07:40:16.947Z,86.39
2018-12-04T07:42:45.200Z,86.42
2018-12-04T07:45:13.562Z,86.93
2018-12-04T07:47:41.876Z,86.19
2018-12-04T07:50:10.191Z,86.10
2018-12-04T07:52:38.432Z,86.30
2018-12-04T07:55:06.846Z,86.44
2018-12-04T07:57:35.216Z,86.48
2018-12-04T08:00:04.187Z,86.19
2018-12-04T08:02:32.357Z,85.87
2018-12-04T08:05:00.551Z,85.45
2018-12-04T08:07:28.905Z,86.18
2018-12-04T08:09:57.854Z,85.39
2018-12-04T08:12:26.069Z,86.03
2018-12-04T08:14:54.278Z,85.47
2018-12-04T08:17:22.469Z,84.64
2018-12-04T08:19:50.672Z,84.47
2018-12-04T08:22:18.861Z,84.27
2018-12-04T08:24:47.149Z,84.74
2018-12-04T08:27:20.396Z,84.67
2018-12-04T08:29:48.581Z,85.92
2018-12-04T08:32:16.878Z,85.33
2018-12-04T08:34:45.108Z,84.53
2018-12-04T08:37:13.314Z,85.20
2018-12-04T08:39:41.577Z,85.13
2018-12-04T08:42:09.762Z,85.01
2018-12-04T08:44:38.606Z,84.56
2018-12-04T08:47:06.825Z,83.80
2018-12-04T08:49:35.027Z,84.18
2018-12-04T08:52:03.818Z,84.21
2018-12-04T08:54:32.683Z,83.96
2018-12-04T08:57:01.523Z,84.28
2018-12-04T08:59:29.753Z,84.66
2018-12-04T09:01:57.938Z,83.46
2018-12-04T09:04:26.189Z,83.57
2018-12-04T09:06:54.458Z,82.93
2018-12-04T09:09:22.818Z,82.75
2018-12-04T09:11:51.251Z,82.77
2018-12-04T09:14:19.525Z,82.72
2018-12-04T09:16:48.709Z,81.08
2018-12-04T09:19:17.070Z,80.60
2018-12-04T09:21:45.469Z,81.05
2018-12-04T09:24:13.666Z,80.85
2018-12-04T09:26:42.040Z,79.40
2018-12-04T09:29:10.324Z,79.70
2018-12-04T09:31:38.666Z,79.71
2018-12-04T09:34:06.957Z,80.20
2018-12-04T09:36:35.228Z,81.02
2018-12-04T09:39:05.132Z,80.60
2018-12-04T09:41:33.313Z,81.22
2018-12-04T09:44:01.720Z,81.63
2018-12-04T09:46:29.984Z,81.20
2018-12-04T09:48:58.403Z,79.93
2018-12-04T09:51:26.586Z,81.02
2018-12-04T09:53:54.773Z,79.68
2018-12-04T09:56:23.072Z,80.61
2018-12-04T09:58:51.486Z,80.78
2018-12-04T10:01:19.731Z,80.40
2018-12-04T10:03:48.046Z,80.00
2018-12-04T10:06:16.424Z,80.26
2018-12-04T10:08:44.778Z,79.02
2018-12-04T10:11:12.938Z,79.19
2018-12-04T10:13:41.440Z,79.16
2018-12-04T10:16:09.686Z,77.76
2018-12-04T10:18:37.945Z,78.54
2018-12-04T10:21:06.256Z,77.91
2018-12-04T10:23:34.629Z,78.31
2018-12-04T10:26:03.007Z,78.53
2018-12-04T10:28:31.208Z,77.74
2018-12-04T10:31:04.645Z,77.36
2018-12-04T10:33:32.858Z,76.51
2018-12-04T10:36:01.037Z,76.33
2018-12-04T10:38:29.433Z,77.58
2018-12-04T10:40:57.724Z,77.00
2018-12-04T10:43:25.854Z,76.88
2018-12-04T10:45:54.126Z,77.82
2018-12-04T10:48:22.282Z,77.56
2018-12-04T10:50:50.593Z,78.77
2018-12-04T10:53:18.798Z,78.42
2018-12-04T10:55:47.075Z,78.13
2018-12-04T10:58:18.337Z,78.85
2018-12-04T11:00:51.941Z,79.47
2018-12-04T11:03:24.276Z,79.09
2018-12-04T11:05:52.455Z,78.66
2018-12-04T11:08:20.630Z,78.24
2018-12-04T11:10:47.831Z,78.08
2018-12-04T11:13:16.082Z,77.75
2018-12-04T11:15:44.281Z,77.03
2018-12-04T11:18:12.489Z,77.94
2018-12-04T11:20:40.726Z,77.60
2018-12-04T11:23:09.052Z,76.67
2018-12-04T11:25:37.221Z,76.22
2018-12-04T11:28:05.484Z,77.15
2018-12-04T11:30:33.762Z,76.29
2018-12-04T11:33:02.018Z,76.91
2018-12-04T11:35:30.185Z,76.26
2018-12-04T11:37:58.352Z,76.17
2018-12-04T11:40:26.558Z,76.17
2018-12-04T11:42:54.809Z,77.05
2018-12-04T11:45:23.324Z,77.29
2018-12-04T11:47:51.652Z,76.71
2018-12-04T11:50:19.975Z,77.52
2018-12-04T11:52:48.157Z,77.05
2018-12-04T11:55:16.409Z,77.36
2018-12-04T11:57:44.671Z,76.61
2018-12-04T12:00:19.318Z,77.27
2018-12-04T12:02:48.421Z,76.15
2018-12-04T12:05:16.688Z,75.97
2018-12-04T12:07:44.885Z,75.32
2018-12-04T12:10:13.120Z,76.04
2018-12-04T12:12:41.380Z,75.33
2018-12-04T12:15:10.144Z,74.56
2018-12-04T12:17:38.525Z,75.38
2018-12-04T12:20:08.005Z,75.40
2018-12-04T12:22:36.269Z,76.04
2018-12-04T12:25:05.525Z,75.31
2018-12-04T12:27:33.849Z,74.51
2018-12-04T12:30:02.179Z,74.48
2018-12-04T12:32:30.436Z,72.86
2018-12-04T12:34:58.633Z,73.73
2018-12-04T12:37:26.935Z,73.17
2018-12-04T12:39:55.172Z,74.11
2018-12-04T12:42:23.358Z,74.29
2018-12-04T12:44:51.657Z,73.80
2018-12-04T12:47:19.945Z,72.93
2018-12-04T12:49:48.094Z,72.13
2018-12-04T12:52:16.362Z,72.77
2018-12-04T12:54:44.625Z,72.80
2018-12-04T12:57:12.901Z,72.32
2018-12-04T12:59:41.721Z,73.51
2018-12-04T13:02:09.983Z,73.07
2018-12-04T13:04:38.213Z,72.08
2018-12-04T13:07:06.510Z,72.83
2018-12-04T13:09:34.676Z,73.95
2018-12-04T13:12:03.028Z,75.54
2018-12-04T13:14:31.361Z,75.51
2018-12-04T13:16:59.797Z,75.50
2018-12-04T13:19:28.093Z,74.12
2018-12-04T13:21:56.248Z,74.67
2018-12-04T13:24:24.563Z,75.03
2018-12-04T13:26:52.852Z,75.41
2018-12-04T13:29:21.162Z,74.59
2018-12-04T13:31:49.540Z,73.43
2018-12-04T13:34:17.811Z,73.20
2018-12-04T13:36:46.036Z,72.61
2018-12-04T13:39:14.246Z,72.79
2018-12-04T13:41:42.576Z,72.15
2018-12-04T13:44:11.177Z,71.18
2018-12-04T13:46:39.377Z,71.86
2018-12-04T13:49:07.642Z,71.52
2018-12-04T13:51:36.709Z,70.37
2018-12-04T13:54:05.422Z,70.95
2018-12-04T13:56:33.668Z,69.52
2018-12-04T13:59:02.330Z,69.66
2018-12-04T14:01:30.507Z,69.41
2018-12-04T14:03:58.726Z,68.76
2018-12-04T14:06:27.141Z,69.13
2018-12-04T14:08:55.415Z,69.79
2018-12-04T14:11:23.657Z,69.82
2018-12-04T14:13:51.946Z,70.33
2018-12-04T14:16:20.119Z,70.49
2018-12-04T14:18:48.474Z,71.15
2018-12-04T14:21:16.682Z,70.76
2018-12-04T14:23:44.921Z,71.03
2018-12-04T14:26:13.377Z,71.64
2018-12-04T14:28:41.579Z,72.41
2018-12-04T14:31:10.239Z,72.61
2018-12-04T14:33:38.533Z,73.27
2018-12-04T14:36:06.849Z,73.86
2018-12-04T14:38:35.052Z,73.87
2018-12-04T14:41:03.369Z,74.83
2018-12-04T14:43:31.565Z,75.04
2018-12-04T14:45:59.836Z,75.08
2018-12-04T14:48:28.246Z,74.83
2018-12-04T14:50:56.533Z,75.22
2018-12-04T14:53:25.505Z,75.44
2018-12-04T14:55:53.795Z,76.06
2018-12-04T14:58:22.026Z,76.33
2018-12-04T15:00:50.869Z,76.21
2018-12-04T15:03:19.126Z,76.93
2018-12-04T15:05:47.367Z,76.22
2018-12-04T15:08:15.643Z,76.82
2018-12-04T15:10:43.920Z,76.72
2018-12-04T15:13:12.238Z,77.13
2018-12-04T15:15:40.577Z,76.88
2018-12-04T15:18:08.862Z,77.53
2018-12-04T15:20:37.061Z,76.95
2018-12-04T15:23:05.245Z,77.54
2018-12-04T15:25:34.386Z,77.58
2018-12-04T15:28:02.686Z,77.55
2018-12-04T15:30:31.131Z,78.40
2018-12-04T15:32:59.576Z,78.24
2018-12-04T15:35:27.898Z,77.82
2018-12-04T15:37:56.161Z,77.66
2018-12-04T15:40:24.349Z,77.86
2018-12-04T15:42:52.723Z,78.82
2018-12-04T15:45:21.035Z,78.35
2018-12-04T15:47:49.319Z,78.19
2018-12-04T15:50:18.600Z,77.89
2018-12-04T15:52:46.938Z,77.99
2018-12-04T15:55:15.357Z,78.51
2018-12-04T15:57:43.620Z,77.96
2018-12-04T16:00:11.954Z,77.79
2018-12-04T16:02:40.305Z,77.64
2018-12-04T16:05:09.761Z,78.75
2018-12-04T16:07:38.312Z,79.49
2018-12-04T16:10:10.621Z,78.46
2018-12-04T16:12:38.876Z,78.47
2018-12-04T16:15:07.276Z,78.39
2018-12-04T16:17:35.424Z,78.80
2018-12-04T16:20:04.130Z,78.75
2018-12-04T16:22:32.510Z,78.33
2018-12-04T16:25:00.684Z,79.05
2018-12-04T16:27:29.005Z,77.87
2018-12-04T16:29:58.295Z,78.27
2018-12-04T16:32:26.689Z,78.35
2018-12-04T16:34:54.910Z,78.92
2018-12-04T16:37:23.097Z,78.96
2018-12-04T16:39:51.385Z,78.82
2018-12-04T16:42:19.554Z,78.84
2018-12-04T16:44:47.938Z,78.43
2018-12-04T16:47:16.522Z,79.59
2018-12-04T16:49:44.858Z,80.12
2018-12-04T16:52:13.029Z,80.69
2018-12-04T16:54:41.206Z,79.68
2018-12-04T16:57:09.888Z,79.02
2018-12-04T16:59:38.044Z,78.50
2018-12-04T17:02:06.272Z,78.86
2018-12-04T17:04:34.533Z,78.79
2018-12-04T17:07:02.718Z,78.08
2018-12-04T17:09:30.980Z,78.28
2018-12-04T17:11:59.383Z,79.05
2018-12-04T17:14:27.660Z,79.06
2018-12-04T17:16:56.486Z,79.25
2018-12-04T17:19:27.489Z,79.12
2018-12-04T17:21:56.276Z,79.19
2018-12-04T17:24:24.577Z,79.38
2018-12-04T17:26:52.926Z,80.75
2018-12-04T17:29:21.077Z,80.13
2018-12-04T17:31:49.248Z,79.62
2018-12-04T17:34:18.227Z,79.13
2018-12-04T17:36:46.413Z,79.74
2018-12-04T17:39:14.623Z,80.36
2018-12-04T17:41:42.933Z,79.46
2018-12-04T17:44:11.085Z,80.18
2018-12-04T17:46:39.339Z,80.08
2018-12-04T17:49:07.609Z,81.00
2018-12-04T17:51:35.821Z,81.09
2018-12-04T17:54:04.157Z,80.88
2018-12-04T17:56:32.309Z,81.65
2018-12-04T17:59:00.513Z,80.88
2018-12-04T18:01:28.882Z,80.66
2018-12-04T18:03:57.049Z,80.47
2018-12-04T18:06:25.737Z,81.17
2018-12-04T18:08:53.897Z,80.63
2018-12-04T18:11:22.170Z,80.04
2018-12-04T18:13:50.358Z,79.41
2018-12-04T18:16:18.850Z,79.84
2018-12-04T18:18:47.294Z,79.82
2018-12-04T18:21:15.482Z,80.51
2018-12-04T18:23:43.682Z,80.56
2018-12-04T18:26:11.881Z,80.18
2018-12-04T18:28:40.157Z,79.60
2018-12-04T18:31:09.406Z,80.45
2018-12-04T18:33:37.590Z,80.15
2018-12-04T18:36:04.732Z,80.71
2018-12-04T18:38:33.818Z,80.29
2018-12-04T18:41:02.010Z,79.92
2018-12-04T18:43:30.295Z,79.11
2018-12-04T18:45:59.068Z,79.47
2018-12-04T18:48:27.361Z,79.77
2018-12-04T18:50:55.745Z,79.24
2018-12-04T18:53:24.210Z,79.89
2018-12-04T18:55:52.449Z,79.74
2018-12-04T18:58:20.677Z,79.48
2018-12-04T19:00:50.016Z,79.57
2018-12-04T19:03:18.956Z,79.42
2018-12-04T19:05:47.144Z,79.88
2018-12-04T19:08:15.301Z,79.91
2018-12-04T19:10:43.727Z,80.97
2018-12-04T19:13:12.850Z,81.67
2018-12-04T19:15:41.230Z,81.89
2018-12-04T19:18:09.611Z,81.39
2018-12-04T19:20:38.042Z,81.22
2018-12-04T19:23:06.788Z,81.03
2018-12-04T19:25:35.089Z,80.51
2018-12-04T19:28:03.559Z,81.32
2018-12-04T19:30:31.771Z,81.72
2018-12-04T19:33:00.014Z,80.83
2018-12-04T19:35:28.244Z,80.88
2018-12-04T19:37:56.449Z,80.91
2018-12-04T19:40:24.735Z,81.05
2018-12-04T19:42:52.950Z,80.17
2018-12-04T19:45:21.169Z,79.71
2018-12-04T19:47:49.457Z,80.04
2018-12-04T19:50:17.759Z,79.54
2018-12-04T19:52:45.991Z,80.99
2018-12-04T19:55:14.395Z,80.36
2018-12-04T19:57:42.640Z,80.91
2018-12-04T20:00:11.292Z,80.13
2018-12-04T20:02:39.556Z,79.99
2018-12-04T20:05:07.949Z,80.04
2018-12-04T20:07:36.173Z,79.92
2018-12-04T20:10:04.749Z,79.87
2018-12-04T20:12:33.124Z,80.19
2018-12-04T20:15:01.300Z,80.08
2018-12-04T20:17:29.577Z,79.92
2018-12-04T20:19:57.728Z,80.67
2018-12-04T20:22:25.870Z,80.25
2018-12-04T20:24:54.037Z,80.46
2018-12-04T20:27:23.108Z,80.63
2018-12-04T20:29:51.270Z,80.64
2018-12-04T20:32:19.459Z,80.90
2018-12-04T20:34:48.618Z,79.94
2018-12-04T20:37:16.757Z,80.90
2018-12-04T20:39:45.061Z,81.10
2018-12-04T20:42:13.201Z,80.57
2018-12-04T20:44:41.342Z,80.23
2018-12-04T20:47:09.525Z,79.93
2018-12-04T20:49:38.256Z,80.69
2018-12-04T20:52:06.449Z,81.40
2018-12-04T20:54:34.618Z,80.57
2018-12-04T20:57:02.887Z,81.30
2018-12-04T20:59:31.106Z,80.87
2018-12-04T21:01:59.357Z,80.88
2018-12-04T21:04:27.496Z,80.59
2018-12-04T21:06:55.725Z,80.94
2018-12-04T21:09:24.042Z,80.37
2018-12-04T21:11:52.208Z,79.97
2018-12-04T21:14:20.429Z,80.79
2018-12-04T21:16:48.642Z,80.50
2018-12-04T21:19:16.764Z,80.73
2018-12-04T21:21:44.916Z,80.53
2018-12-04T21:24:13.049Z,80.52
2018-12-04T21:26:41.262Z,81.07
2018-12-04T21:29:14.794Z,80.24
2018-12-04T21:31:48.380Z,80.26
2018-12-04T21:34:21.886Z,80.01
2018-12-04T21:36:55.441Z,80.21
2018-12-04T21:39:29.782Z,79.87
2018-12-04T21:42:03.441Z,79.86
2018-12-04T21:44:37.234Z,79.90
2018-12-04T21:47:11.109Z,79.53
2018-12-04T21:49:40.176Z,80.06
2018-12-04T21:52:08.452Z,79.83
2018-12-04T21:54:36.754Z,78.85
2018-12-04T21:57:04.965Z,79.94
2018-12-04T21:59:33.146Z,80.06
2018-12-04T22:02:01.725Z,80.63
2018-12-04T22:04:30.434Z,81.02
2018-12-04T22:06:58.893Z,80.41
2018-12-04T22:09:27.321Z,81.18
2018-12-04T22:11:56.221Z,81.11
2018-12-04T22:14:24.510Z,80.73
2018-12-04T22:16:52.706Z,80.24
2018-12-04T22:19:21.034Z,79.85
2018-12-04T22:21:49.188Z,79.57
2018-12-04T22:24:17.445Z,78.96
2018-12-04T22:26:45.701Z,78.90
2018-12-04T22:29:13.947Z,79.26
2018-12-04T22:31:42.956Z,79.34
2018-12-04T22:34:11.226Z,79.54
2018-12-04T22:36:39.449Z,78.87
2018-12-04T22:39:09.581Z,79.67
2018-12-04T22:41:38.087Z,79.71
2018-12-04T22:44:06.379Z,79.12
2018-12-04T22:46:34.826Z,79.34
2018-12-04T22:49:03.619Z,80.11
2018-12-04T22:51:31.900Z,80.42
2018-12-04T22:54:00.072Z,80.61
2018-12-04T22:56:28.339Z,80.77
2018-12-04T22:58:56.500Z,81.15
2018-12-04T23:01:41.385Z,80.87
2018-12-04T23:04:09.978Z,80.86
2018-12-04T23:06:38.320Z,81.64
2018-12-04T23:09:10.210Z,80.53
2018-12-04T23:11:39.399Z,80.53
2018-12-04T23:14:08.062Z,81.09
2018-12-04T23:16:36.440Z,80.91
2018-12-04T23:19:05.166Z,80.93
2018-12-04T23:21:33.402Z,80.27
2018-12-04T23:24:01.722Z,79.97
2018-12-04T23:26:29.980Z,80.46
2018-12-04T23:28:58.234Z,80.58
2018-12-04T23:31:26.500Z,80.55
2018-12-04T23:33:54.698Z,80.91
2018-12-04T23:36:22.873Z,80.56
2018-12-04T23:38:51.373Z,80.17
2018-12-04T23:41:19.747Z,80.56
2018-12-04T23:43:48.105Z,80.32
2018-12-04T23:46:16.247Z,80.29
2018-12-04T23:48:44.497Z,80.42
2018-12-04T23:51:12.664Z,80.10
2018-12-04T23:53:40.964Z,80.01
2018-12-04T23:56:09.117Z,80.67
2018-12-04T23:58:37.856Z,79.91
